Time;durP1;ratioP1;P1;durP2;ratioP2;P2;SDS_P1;SDS_P2;PMS_P1;PMS_P2;Temp;Humidity;BMP_temperature;BMP_pressure;BME280_temperature;BME280_humidity;BME280_pressure;Samples;Min_cycle;Max_cycle;Signal;HPM_P1;HPM_P2
2021/08/27 00:02:32;;;;;;;;;;;11.50;99.90;;;;;;8330191;28;19913;-65
2021/08/27 00:06:32;;;;;;;;;;;11.60;99.90;;;;;;8329853;28;19921;-66
2021/08/27 00:10:33;;;;;;;;;;;11.90;99.90;;;;;;8329758;28;20301;-65
2021/08/27 00:14:34;;;;;;;;;;;12.00;99.90;;;;;;8329564;28;20304;-66
2021/08/27 00:18:34;;;;;;;;;;;11.90;99.90;;;;;;8329486;28;20455;-65
2021/08/27 00:22:35;;;;;;;;;;;11.70;99.90;;;;;;8329469;28;20361;-65
2021/08/27 00:26:35;;;;;;;;;;;11.60;99.90;;;;;;8329038;28;19917;-65
2021/08/27 00:30:36;;;;;;;;;;;11.50;99.90;;;;;;8328802;28;20004;-65
2021/08/27 00:34:36;;;;;;;;;;;11.40;99.90;;;;;;8328147;28;20373;-65
2021/08/27 00:38:37;;;;;;;;;;;11.30;99.90;;;;;;8328186;28;20365;-65
2021/08/27 00:42:37;;;;;;;;;;;11.20;99.90;;;;;;8328692;28;19913;-65
2021/08/27 00:46:38;;;;;;;;;;;11.10;99.90;;;;;;8328122;28;19920;-65
2021/08/27 00:50:38;;;;;;;;;;;11.10;99.90;;;;;;8328420;28;19913;-65
2021/08/27 00:54:42;;;;;;;;;;;11.00;99.90;;;;;;8327911;28;19920;-65
2021/08/27 00:58:43;;;;;;;;;;;11.00;99.90;;;;;;8327336;28;19909;-65
2021/08/27 01:02:43;;;;;;;;;;;10.90;99.90;;;;;;8327944;28;20053;-65
2021/08/27 01:06:47;;;;;;;;;;;11.00;99.90;;;;;;8327726;28;19913;-63
2021/08/27 01:10:50;;;;;;;;;;;10.80;99.90;;;;;;8343116;28;19932;-65
2021/08/27 01:14:52;;;;;;;;;;;10.60;99.90;;;;;;8327240;28;19913;-65
2021/08/27 01:18:56;;;;;;;;;;;10.70;99.90;;;;;;8327565;28;19909;-65
2021/08/27 01:23:08;;;;;;;;;;;10.40;99.90;;;;;;8342728;28;20266;-65
2021/08/27 01:27:10;;;;;;;;;;;10.40;99.90;;;;;;8327040;28;19924;-65
2021/08/27 01:31:16;;;;;;;;;;;10.40;99.90;;;;;;8325763;28;20054;-65
2021/08/27 01:35:17;;;;;;;;;;;10.30;99.90;;;;;;8326368;28;20363;-65
2021/08/27 01:39:18;;;;;;;;;;;10.10;99.90;;;;;;8327148;28;20039;-65
2021/08/27 01:43:20;;;;;;;;;;;10.10;99.90;;;;;;8327217;28;19909;-65
2021/08/27 01:47:23;;;;;;;;;;;10.10;99.90;;;;;;8326569;28;19916;-65
2021/08/27 01:51:24;;;;;;;;;;;10.00;99.90;;;;;;8327020;28;19909;-65
2021/08/27 01:55:26;;;;;;;;;;;10.10;99.90;;;;;;8326729;28;19913;-65
2021/08/27 01:59:29;;;;;;;;;;;10.00;99.90;;;;;;8326967;28;20364;-66
2021/08/27 02:03:31;;;;;;;;;;;10.00;99.90;;;;;;8342046;28;19913;-65
2021/08/27 02:07:32;;;;;;;;;;;10.10;99.90;;;;;;8326373;28;19909;-65
2021/08/27 02:11:33;;;;;;;;;;;10.10;99.90;;;;;;8326078;28;19920;-65
2021/08/27 02:15:34;;;;;;;;;;;10.30;99.90;;;;;;8325876;28;20273;-65
2021/08/27 02:19:35;;;;;;;;;;;10.40;99.90;;;;;;8326272;28;19909;-65
2021/08/27 02:23:37;;;;;;;;;;;10.50;99.90;;;;;;8326142;28;19909;-65
2021/08/27 02:27:39;;;;;;;;;;;10.50;99.90;;;;;;8325600;28;20072;-65
2021/08/27 02:31:39;;;;;;;;;;;10.50;99.90;;;;;;8324952;28;20377;-65
2021/08/27 02:35:41;;;;;;;;;;;10.40;99.90;;;;;;8324705;28;19913;-65
2021/08/27 02:39:41;;;;;;;;;;;10.40;99.90;;;;;;8325870;28;20304;-65
2021/08/27 02:43:42;;;;;;;;;;;10.50;99.90;;;;;;8325697;28;19955;-65
2021/08/27 02:47:43;;;;;;;;;;;10.60;99.90;;;;;;8325456;28;19916;-65
2021/08/27 02:52:03;;;;;;;;;;;10.60;99.90;;;;;;8324458;28;19968;-65
2021/08/27 02:56:05;;;;;;;;;;;10.60;99.90;;;;;;8325307;28;19939;-65
2021/08/27 03:00:06;;;;;;;;;;;10.70;99.90;;;;;;8325438;28;19909;-65
2021/08/27 03:04:24;;;;;;;;;;;10.70;99.90;;;;;;8324416;28;20516;-65
2021/08/27 03:08:24;;;;;;;;;;;10.70;99.90;;;;;;8325529;28;19951;-66
2021/08/27 03:12:33;;;;;;;;;;;10.70;99.90;;;;;;8325640;28;20404;-65
2021/08/27 03:16:34;;;;;;;;;;;10.90;99.90;;;;;;8325337;28;19917;-65
2021/08/27 03:20:41;;;;;;;;;;;10.80;99.90;;;;;;8325574;28;19999;-65
2021/08/27 03:24:45;;;;;;;;;;;11.00;99.90;;;;;;8330721;28;19940;-65
2021/08/27 03:28:49;;;;;;;;;;;11.00;99.90;;;;;;8331366;28;19909;-65
2021/08/27 03:32:50;;;;;;;;;;;11.00;99.90;;;;;;8330791;28;20288;-65
2021/08/27 03:36:51;;;;;;;;;;;11.00;99.90;;;;;;8329165;28;19917;-65
2021/08/27 03:40:53;;;;;;;;;;;11.20;99.90;;;;;;8330705;28;19916;-65
2021/08/27 03:44:53;;;;;;;;;;;11.40;99.90;;;;;;8330310;28;20380;-65
2021/08/27 03:48:54;;;;;;;;;;;11.40;99.90;;;;;;8330468;28;19913;-65
2021/08/27 03:52:55;;;;;;;;;;;11.50;99.90;;;;;;8330373;28;19909;-65
2021/08/27 03:56:58;;;;;;;;;;;11.70;99.90;;;;;;8329859;28;19940;-65
2021/08/27 04:00:59;;;;;;;;;;;11.50;99.90;;;;;;8329992;28;19913;-65
2021/08/27 04:05:13;;;;;;;;;;;11.60;99.90;;;;;;8329689;28;20475;-65
2021/08/27 04:09:13;;;;;;;;;;;11.50;99.90;;;;;;8329907;28;19910;-65
2021/08/27 04:13:14;;;;;;;;;;;11.40;99.90;;;;;;8325324;28;20293;-65
2021/08/27 04:17:14;;;;;;;;;;;11.50;99.90;;;;;;8327654;28;19917;-65
2021/08/27 04:21:14;;;;;;;;;;;11.60;99.90;;;;;;8329186;28;19916;-65
2021/08/27 04:25:15;;;;;;;;;;;11.60;99.90;;;;;;8328996;28;20308;-65
2021/08/27 04:29:15;;;;;;;;;;;11.60;99.90;;;;;;8328873;28;19909;-65
2021/08/27 04:33:16;;;;;;;;;;;11.60;99.90;;;;;;8328708;28;20304;-65
2021/08/27 04:37:16;;;;;;;;;;;11.70;99.90;;;;;;8328592;28;20393;-65
2021/08/27 04:41:17;;;;;;;;;;;11.80;99.90;;;;;;8328705;28;19979;-65
2021/08/27 04:45:17;;;;;;;;;;;11.80;99.90;;;;;;8328718;28;20417;-65
2021/08/27 04:49:18;;;;;;;;;;;11.90;99.90;;;;;;8328911;28;19920;-65
2021/08/27 04:53:18;;;;;;;;;;;12.10;99.90;;;;;;8328795;28;20361;-65
2021/08/27 04:57:19;;;;;;;;;;;11.80;99.90;;;;;;8328114;28;20291;-64
2021/08/27 05:01:19;;;;;;;;;;;11.80;99.90;;;;;;8328467;28;20376;-64
2021/08/27 05:05:20;;;;;;;;;;;11.70;99.90;;;;;;8327973;28;19962;-64
2021/08/27 05:09:21;;;;;;;;;;;11.90;99.90;;;;;;8327928;28;19909;-64
2021/08/27 05:13:21;;;;;;;;;;;11.80;99.90;;;;;;8327947;28;19909;-65
2021/08/27 05:17:22;;;;;;;;;;;11.90;99.90;;;;;;8327430;28;19920;-65
2021/08/27 05:21:22;;;;;;;;;;;12.00;99.90;;;;;;8327459;28;19932;-65
2021/08/27 05:25:23;;;;;;;;;;;11.80;99.90;;;;;;8310285;28;19917;-65
2021/08/27 05:29:23;;;;;;;;;;;11.90;99.90;;;;;;8294877;28;19910;-65
2021/08/27 05:33:23;;;;;;;;;;;11.90;99.90;;;;;;8293888;28;20345;-65
2021/08/27 05:37:24;;;;;;;;;;;12.00;99.90;;;;;;8294091;28;20305;-64
2021/08/27 05:41:25;;;;;;;;;;;12.20;99.90;;;;;;8292968;28;19917;-64
2021/08/27 05:45:25;;;;;;;;;;;12.20;99.90;;;;;;8293589;28;19930;-64
2021/08/27 05:49:26;;;;;;;;;;;12.10;99.90;;;;;;8318020;28;20399;-65
2021/08/27 05:53:26;;;;;;;;;;;12.00;99.90;;;;;;8314945;28;19914;-64
2021/08/27 05:57:28;;;;;;;;;;;12.00;99.90;;;;;;8316132;28;19921;-65
2021/08/27 06:01:28;;;;;;;;;;;12.30;99.90;;;;;;8308771;28;19924;-64
2021/08/27 06:05:29;;;;;;;;;;;12.40;99.90;;;;;;8315081;28;19948;-64
2021/08/27 06:09:30;;;;;;;;;;;12.30;99.90;;;;;;8304429;28;19925;-64
2021/08/27 06:13:32;;;;;;;;;;;12.40;99.90;;;;;;8305376;28;19921;-65
2021/08/27 06:17:33;;;;;;;;;;;12.30;99.90;;;;;;8323411;28;20408;-65
2021/08/27 06:21:35;;;;;;;;;;;12.40;99.90;;;;;;8323627;28;19959;-64
2021/08/27 06:25:35;;;;;;;;;;;12.50;99.90;;;;;;8321863;28;19921;-64
2021/08/27 06:29:36;;;;;;;;;;;12.40;99.90;;;;;;8321816;28;19917;-65
2021/08/27 06:33:36;;;;;;;;;;;12.60;99.90;;;;;;8307652;28;19917;-65
2021/08/27 06:41:57;;;;;;;;;;;13.00;99.90;;;;;;8319028;28;19940;-71
2021/08/27 06:46:00;;;;;;;;;;;13.10;99.90;;;;;;8313499;28;19920;-71
2021/08/27 06:50:01;;;;;;;;;;;13.10;99.90;;;;;;8318920;28;19909;-71
2021/08/27 06:54:01;;;;;;;;;;;13.20;99.90;;;;;;8315819;28;20273;-71
2021/08/27 06:58:02;;;;;;;;;;;13.20;99.90;;;;;;8321140;28;19921;-71
2021/08/27 07:02:03;;;;;;;;;;;13.10;99.90;;;;;;8319631;28;19913;-70
2021/08/27 07:06:04;;;;;;;;;;;13.20;99.90;;;;;;8307625;28;19921;-71
2021/08/27 07:10:04;;;;;;;;;;;13.20;99.90;;;;;;8315475;28;19921;-71
2021/08/27 07:14:06;;;;;;;;;;;13.30;99.90;;;;;;8313662;28;19917;-71
2021/08/27 07:18:07;;;;;;;;;;;13.70;99.90;;;;;;8323206;28;20008;-71
2021/08/27 07:22:07;;;;;;;;;;;13.90;99.90;;;;;;8312062;28;19913;-71
2021/08/27 07:26:07;;;;;;;;;;;14.10;99.90;;;;;;8297626;28;19909;-71
2021/08/27 07:30:09;;;;;;;;;;;14.50;99.90;;;;;;8298221;28;19914;-72
2021/08/27 07:34:09;;;;;;;;;;;14.50;99.90;;;;;;8297656;28;19917;-70
2021/08/27 07:38:11;;;;;;;;;;;14.30;99.90;;;;;;8298127;28;20339;-71
2021/08/27 07:42:11;;;;;;;;;;;14.20;99.90;;;;;;8306664;28;19913;-71
2021/08/27 07:46:11;;;;;;;;;;;14.10;99.90;;;;;;8323777;28;19928;-71
2021/08/27 07:50:13;;;;;;;;;;;14.20;99.90;;;;;;8300221;28;19967;-71
2021/08/27 07:54:14;;;;;;;;;;;14.50;99.90;;;;;;8280587;28;19924;-72
2021/08/27 07:58:14;;;;;;;;;;;14.70;99.90;;;;;;8301994;28;19913;-65
2021/08/27 08:02:15;;;;;;;;;;;14.80;99.90;;;;;;8321733;28;20327;-65
2021/08/27 08:06:15;;;;;;;;;;;14.70;99.90;;;;;;8327459;28;20440;-65
2021/08/27 08:10:16;;;;;;;;;;;14.60;99.90;;;;;;8312048;28;20369;-65
2021/08/27 08:14:16;;;;;;;;;;;14.60;99.90;;;;;;8298917;28;19925;-65
2021/08/27 08:18:17;;;;;;;;;;;14.50;99.90;;;;;;8325223;28;19936;-65
2021/08/27 08:22:21;;;;;;;;;;;14.40;99.90;;;;;;8301232;28;19913;-65
2021/08/27 08:26:22;;;;;;;;;;;14.60;99.90;;;;;;8322550;28;19920;-65
2021/08/27 08:30:22;;;;;;;;;;;14.60;99.90;;;;;;8328209;28;20307;-65
2021/08/27 08:34:23;;;;;;;;;;;14.40;99.90;;;;;;8307504;28;20403;-65
2021/08/27 08:38:24;;;;;;;;;;;14.50;99.90;;;;;;8323440;28;19975;-65
2021/08/27 08:42:25;;;;;;;;;;;15.10;99.90;;;;;;8326738;28;19959;-65
2021/08/27 08:46:25;;;;;;;;;;;15.50;99.90;;;;;;8325050;28;19928;-65
2021/08/27 08:50:26;;;;;;;;;;;15.50;99.90;;;;;;8326327;28;19971;-65
2021/08/27 08:54:27;;;;;;;;;;;15.60;99.90;;;;;;8322793;28;19921;-65
2021/08/27 08:58:27;;;;;;;;;;;15.90;99.90;;;;;;8321385;28;20487;-65
2021/08/27 09:02:28;;;;;;;;;;;16.30;99.90;;;;;;8325334;28;19913;-65
2021/08/27 09:06:29;;;;;;;;;;;16.20;99.90;;;;;;8325385;28;20010;-65
2021/08/27 09:10:39;;;;;;;;;;;15.70;99.90;;;;;;8318032;28;19913;-65
2021/08/27 09:14:40;;;;;;;;;;;15.40;99.90;;;;;;8324724;28;19913;-65
2021/08/27 09:18:42;;;;;;;;;;;15.30;99.90;;;;;;8323606;28;19917;-65
2021/08/27 09:22:52;;;;;;;;;;;15.20;99.90;;;;;;8325637;28;20436;-65
2021/08/27 09:26:57;;;;;;;;;;;15.00;99.90;;;;;;8406365;23;19948;-63
2021/08/27 09:30:58;;;;;;;;;;;15.60;99.90;;;;;;8319903;28;19909;-63
2021/08/27 09:35:15;;;;;;;;;;;16.00;99.90;;;;;;8325973;28;19983;-62
2021/08/27 09:39:16;;;;;;;;;;;16.50;99.90;;;;;;8326878;28;19910;-66
2021/08/27 09:43:22;;;;;;;;;;;16.70;99.90;;;;;;8305005;28;20004;-64
2021/08/27 09:47:22;;;;;;;;;;;16.60;99.90;;;;;;8308558;28;20008;-66
2021/08/27 09:51:41;;;;;;;;;;;17.40;99.90;;;;;;8324532;28;19916;-64
2021/08/27 09:55:58;;;;;;;;;;;17.30;99.90;;;;;;8321430;28;19921;-65
2021/08/27 09:59:58;;;;;;;;;;;16.70;99.90;;;;;;8319507;28;19949;-63
2021/08/27 10:04:03;;;;;;;;;;;16.00;99.90;;;;;;8317821;28;19920;-65
2021/08/27 10:08:36;;;;;;;;;;;15.40;99.90;;;;;;8324877;28;19909;-65
2021/08/27 10:12:37;;;;;;;;;;;14.80;99.90;;;;;;8312912;28;19909;-65
2021/08/27 10:16:39;;;;;;;;;;;15.00;99.90;;;;;;8325532;28;19983;-64
2021/08/27 10:20:40;;;;;;;;;;;15.30;99.90;;;;;;8325150;28;19917;-64
2021/08/27 10:24:43;;;;;;;;;;;15.90;99.90;;;;;;8325857;28;19989;-64
2021/08/27 10:28:45;;;;;;;;;;;15.80;99.90;;;;;;8325705;28;20369;-64
2021/08/27 10:32:46;;;;;;;;;;;16.30;99.90;;;;;;8300172;28;20385;-65
2021/08/27 10:36:47;;;;;;;;;;;17.10;99.90;;;;;;8299664;28;19917;-64
2021/08/27 10:40:49;;;;;;;;;;;17.90;99.90;;;;;;8300050;28;19979;-65
2021/08/27 10:44:50;;;;;;;;;;;18.40;99.90;;;;;;8328974;28;20063;-65
2021/08/27 10:48:52;;;;;;;;;;;18.10;99.90;;;;;;8332630;28;19909;-65
2021/08/27 10:53:12;;;;;;;;;;;18.30;99.90;;;;;;8331727;28;20359;-65
2021/08/27 10:57:19;;;;;;;;;;;18.50;99.90;;;;;;8299081;28;19913;-66
2021/08/27 11:01:32;;;;;;;;;;;18.90;99.90;;;;;;8316934;28;19920;-65
2021/08/27 11:05:33;;;;;;;;;;;18.00;99.90;;;;;;8315293;28;19935;-66
2021/08/27 11:09:34;;;;;;;;;;;18.10;99.90;;;;;;8312427;28;19925;-65
2021/08/27 11:13:35;;;;;;;;;;;17.90;99.90;;;;;;8307931;28;20347;-66
2021/08/27 11:17:38;;;;;;;;;;;17.50;99.90;;;;;;8320972;28;19964;-65
2021/08/27 11:21:40;;;;;;;;;;;18.20;99.90;;;;;;8312892;28;19992;-65
2021/08/27 11:25:41;;;;;;;;;;;19.20;99.90;;;;;;8318924;28;19917;-65
2021/08/27 11:29:42;;;;;;;;;;;17.90;99.90;;;;;;8322269;28;19920;-65
2021/08/27 11:33:46;;;;;;;;;;;17.50;99.90;;;;;;8331123;28;19951;-65
2021/08/27 11:37:53;;;;;;;;;;;19.60;99.90;;;;;;8321963;28;19917;-65
2021/08/27 11:41:54;;;;;;;;;;;20.90;99.90;;;;;;8311102;28;19914;-65
2021/08/27 11:45:59;;;;;;;;;;;19.10;99.90;;;;;;8299760;28;20343;-65
2021/08/27 11:50:01;;;;;;;;;;;17.70;99.90;;;;;;8330274;28;20335;-65
2021/08/27 11:54:17;;;;;;;;;;;20.40;99.90;;;;;;8326570;28;19928;-65
2021/08/27 11:58:18;;;;;;;;;;;24.70;98.50;;;;;;8329196;28;20019;-65
2021/08/27 12:02:20;;;;;;;;;;;25.50;94.80;;;;;;8304992;28;20519;-65
2021/08/27 12:06:21;;;;;;;;;;;23.50;96.10;;;;;;8308224;28;19917;-65
2021/08/27 12:10:23;;;;;;;;;;;20.60;99.90;;;;;;8327436;28;19909;-65
2021/08/27 12:14:43;;;;;;;;;;;18.80;99.90;;;;;;8315572;28;20467;-65
2021/08/27 12:18:44;;;;;;;;;;;18.70;99.90;;;;;;8314243;28;19914;-65
2021/08/27 12:22:45;;;;;;;;;;;18.60;99.90;;;;;;8302342;28;20396;-64
2021/08/27 12:26:47;;;;;;;;;;;18.90;99.90;;;;;;8323293;28;19917;-66
2021/08/27 12:30:52;;;;;;;;;;;21.60;99.90;;;;;;8310526;28;19913;-65
2021/08/27 12:34:53;;;;;;;;;;;24.00;94.80;;;;;;8300137;28;19917;-66
2021/08/27 12:38:54;;;;;;;;;;;26.30;86.90;;;;;;8311934;28;20303;-63
2021/08/27 12:43:08;;;;;;;;;;;27.40;76.30;;;;;;8294547;28;19921;-63
2021/08/27 12:47:08;;;;;;;;;;;27.50;67.30;;;;;;8311031;28;19958;-65
2021/08/27 12:51:12;;;;;;;;;;;26.70;72.60;;;;;;8319073;28;19963;-66
2021/08/27 12:55:19;;;;;;;;;;;28.30;66.30;;;;;;8315704;28;19917;-65
2021/08/27 12:59:20;;;;;;;;;;;27.20;64.60;;;;;;8324611;28;19913;-65
2021/08/27 13:03:20;;;;;;;;;;;23.90;77.20;;;;;;8312608;28;19921;-65
2021/08/27 13:07:32;;;;;;;;;;;25.80;69.60;;;;;;8315432;28;19914;-65
2021/08/27 13:11:46;;;;;;;;;;;27.50;71.20;;;;;;8319241;28;19916;-63
2021/08/27 13:16:02;;;;;;;;;;;29.90;58.00;;;;;;8308790;28;20023;-63
2021/08/27 13:20:03;;;;;;;;;;;28.70;61.70;;;;;;8306282;28;20468;-63
2021/08/27 13:24:07;;;;;;;;;;;25.00;64.40;;;;;;8294342;28;19918;-63
2021/08/27 13:28:08;;;;;;;;;;;25.90;67.60;;;;;;8307856;28;20292;-63
2021/08/27 13:32:17;;;;;;;;;;;27.50;58.70;;;;;;8313632;28;19959;-64
2021/08/27 13:36:18;;;;;;;;;;;25.70;67.20;;;;;;8320418;28;19921;-62
2021/08/27 13:40:20;;;;;;;;;;;23.40;69.80;;;;;;8310389;28;20665;-64
2021/08/27 13:44:20;;;;;;;;;;;24.90;72.00;;;;;;8301772;28;19921;-63
2021/08/27 13:48:21;;;;;;;;;;;25.30;69.30;;;;;;8312365;28;19940;-63
2021/08/27 13:52:21;;;;;;;;;;;26.80;61.00;;;;;;8321577;28;19917;-63
2021/08/27 13:56:22;;;;;;;;;;;27.60;60.40;;;;;;8321082;28;20011;-63
2021/08/27 14:00:22;;;;;;;;;;;28.20;58.10;;;;;;8318060;28;19920;-63
2021/08/27 14:04:23;;;;;;;;;;;27.00;59.20;;;;;;8322439;28;19940;-63
2021/08/27 14:08:23;;;;;;;;;;;26.60;61.90;;;;;;8323630;28;19913;-64
2021/08/27 14:12:24;;;;;;;;;;;26.90;64.70;;;;;;8321374;28;19909;-63
2021/08/27 14:16:24;;;;;;;;;;;26.90;62.00;;;;;;8324525;28;20015;-64
2021/08/27 14:20:25;;;;;;;;;;;25.40;67.80;;;;;;8325911;28;20389;-65
2021/08/27 14:24:25;;;;;;;;;;;29.40;59.60;;;;;;8311424;28;19917;-66
2021/08/27 14:28:26;;;;;;;;;;;31.00;52.90;;;;;;8309972;28;19913;-66
2021/08/27 14:32:28;;;;;;;;;;;31.30;52.50;;;;;;8320497;28;19920;-64
2021/08/27 14:36:31;;;;;;;;;;;33.00;46.80;;;;;;8314551;28;20398;-65
2021/08/27 14:40:32;;;;;;;;;;;30.70;50.50;;;;;;8323932;28;20384;-65
2021/08/27 14:44:32;;;;;;;;;;;28.60;54.10;;;;;;8311105;28;19928;-65
2021/08/27 14:48:33;;;;;;;;;;;26.80;54.40;;;;;;8312859;28;19928;-65
2021/08/27 14:52:34;;;;;;;;;;;26.70;55.70;;;;;;8309584;28;20000;-64
2021/08/27 14:56:34;;;;;;;;;;;26.40;55.60;;;;;;8313416;28;19917;-65
2021/08/27 15:00:36;;;;;;;;;;;26.70;57.70;;;;;;8292660;28;19967;-66
2021/08/27 15:04:37;;;;;;;;;;;30.70;53.90;;;;;;8295914;28;20281;-66
2021/08/27 15:08:37;;;;;;;;;;;32.40;48.00;;;;;;8314888;28;19917;-65
2021/08/27 15:12:38;;;;;;;;;;;29.60;51.20;;;;;;8306747;28;19913;-65
2021/08/27 15:16:38;;;;;;;;;;;28.10;51.50;;;;;;8298835;28;19961;-65
2021/08/27 15:20:39;;;;;;;;;;;26.40;55.30;;;;;;8309576;28;20404;-65
2021/08/27 15:24:39;;;;;;;;;;;25.80;58.10;;;;;;8323363;28;19917;-65
2021/08/27 15:28:40;;;;;;;;;;;26.00;57.50;;;;;;8323151;28;19933;-65
2021/08/27 15:32:40;;;;;;;;;;;24.40;60.50;;;;;;8315853;28;19967;-65
2021/08/27 15:36:41;;;;;;;;;;;24.30;63.10;;;;;;8322698;28;19920;-64
2021/08/27 15:40:41;;;;;;;;;;;25.00;63.10;;;;;;8322385;28;19924;-65
2021/08/27 15:44:42;;;;;;;;;;;26.00;60.00;;;;;;8324888;28;20562;-66
2021/08/27 15:48:42;;;;;;;;;;;27.80;55.90;;;;;;8324090;28;19917;-65
2021/08/27 15:52:43;;;;;;;;;;;27.70;54.60;;;;;;8326208;28;19909;-64
2021/08/27 15:56:44;;;;;;;;;;;26.80;55.60;;;;;;8320958;28;20008;-66
2021/08/27 16:00:45;;;;;;;;;;;27.40;55.80;;;;;;8294931;28;20443;-67
2021/08/27 16:04:45;;;;;;;;;;;28.30;55.00;;;;;;8295254;28;20384;-66
2021/08/27 16:08:46;;;;;;;;;;;27.80;55.40;;;;;;8301848;28;19919;-65
2021/08/27 16:12:47;;;;;;;;;;;27.40;54.40;;;;;;8312096;28;19917;-66
2021/08/27 16:16:47;;;;;;;;;;;28.30;53.40;;;;;;8312261;28;20384;-65
2021/08/27 16:20:49;;;;;;;;;;;28.80;52.90;;;;;;8308011;28;19957;-64
2021/08/27 16:24:51;;;;;;;;;;;30.00;50.80;;;;;;8324248;28;20499;-65
2021/08/27 16:28:52;;;;;;;;;;;29.20;49.80;;;;;;8325509;28;20543;-66
2021/08/27 16:32:52;;;;;;;;;;;27.60;53.10;;;;;;8324008;28;19956;-65
2021/08/27 16:36:52;;;;;;;;;;;26.50;55.70;;;;;;8324584;28;19959;-65
2021/08/27 16:40:53;;;;;;;;;;;27.10;54.30;;;;;;8324813;28;19917;-65
2021/08/27 16:44:54;;;;;;;;;;;27.60;54.50;;;;;;8325079;28;19916;-66
2021/08/27 16:48:54;;;;;;;;;;;27.20;55.80;;;;;;8325167;28;19986;-66
2021/08/27 16:52:55;;;;;;;;;;;25.50;57.80;;;;;;8310561;28;20040;-64
2021/08/27 16:56:56;;;;;;;;;;;23.60;60.60;;;;;;8305440;28;19923;-65
2021/08/27 17:00:56;;;;;;;;;;;21.90;67.50;;;;;;8322858;28;19913;-65
2021/08/27 17:04:57;;;;;;;;;;;21.00;72.20;;;;;;8324330;28;19920;-65
2021/08/27 17:08:57;;;;;;;;;;;20.40;78.60;;;;;;8305338;28;19962;-64
2021/08/27 17:12:58;;;;;;;;;;;19.70;77.60;;;;;;8306027;28;19920;-67
2021/08/27 17:16:58;;;;;;;;;;;19.20;79.70;;;;;;8311208;28;19921;-67
2021/08/27 17:20:59;;;;;;;;;;;18.60;84.10;;;;;;8308827;28;19917;-67
2021/08/27 17:24:59;;;;;;;;;;;18.30;89.00;;;;;;8307352;28;20008;-67
2021/08/27 17:29:00;;;;;;;;;;;18.00;88.60;;;;;;8300840;28;19960;-66
2021/08/27 17:33:00;;;;;;;;;;;17.80;88.90;;;;;;8300946;28;19949;-66
2021/08/27 17:37:01;;;;;;;;;;;17.60;91.00;;;;;;8339143;28;19913;-66
2021/08/27 17:41:01;;;;;;;;;;;17.50;91.60;;;;;;8303608;28;20007;-65
2021/08/27 17:45:02;;;;;;;;;;;17.40;92.40;;;;;;8331483;28;19927;-67
2021/08/27 17:49:02;;;;;;;;;;;17.40;93.30;;;;;;8318056;28;19924;-66
2021/08/27 17:53:03;;;;;;;;;;;17.20;93.70;;;;;;8304186;28;19972;-66
2021/08/27 17:57:04;;;;;;;;;;;17.10;95.80;;;;;;8305756;28;19917;-67
2021/08/27 18:01:04;;;;;;;;;;;16.90;96.80;;;;;;8305429;28;19913;-67
2021/08/27 18:05:05;;;;;;;;;;;16.80;97.80;;;;;;8310479;28;20385;-67
2021/08/27 18:09:06;;;;;;;;;;;16.80;99.00;;;;;;8321826;28;19971;-68
2021/08/27 18:13:08;;;;;;;;;;;16.50;99.90;;;;;;8321192;28;20284;-67
2021/08/27 18:17:08;;;;;;;;;;;16.40;99.90;;;;;;8322337;28;19909;-67
2021/08/27 18:21:09;;;;;;;;;;;16.30;99.90;;;;;;8324176;28;19909;-67
2021/08/27 18:25:09;;;;;;;;;;;16.20;99.90;;;;;;8308391;28;20296;-67
2021/08/27 18:29:10;;;;;;;;;;;16.10;99.90;;;;;;8306545;28;19913;-66
2021/08/27 18:33:11;;;;;;;;;;;16.00;99.90;;;;;;8319274;28;19916;-67
2021/08/27 18:37:11;;;;;;;;;;;15.90;99.90;;;;;;8323437;28;19916;-66
2021/08/27 18:41:12;;;;;;;;;;;15.90;99.90;;;;;;8321278;28;19935;-66
2021/08/27 18:45:13;;;;;;;;;;;15.70;99.90;;;;;;8323417;28;19914;-67
2021/08/27 18:49:14;;;;;;;;;;;15.60;99.90;;;;;;8324882;28;20340;-66
2021/08/27 18:53:14;;;;;;;;;;;15.50;99.90;;;;;;8328407;28;19916;-66
2021/08/27 18:57:15;;;;;;;;;;;15.50;99.90;;;;;;8331953;28;19913;-67
2021/08/27 19:01:15;;;;;;;;;;;15.50;99.90;;;;;;8332122;28;19913;-66
2021/08/27 19:05:17;;;;;;;;;;;15.40;99.90;;;;;;8330862;28;19921;-67
2021/08/27 19:09:17;;;;;;;;;;;15.00;99.90;;;;;;8329531;28;19916;-66
2021/08/27 19:13:17;;;;;;;;;;;14.80;99.90;;;;;;8330651;28;19940;-67
2021/08/27 19:17:18;;;;;;;;;;;15.00;99.90;;;;;;8330148;28;19910;-67
2021/08/27 19:21:19;;;;;;;;;;;14.80;99.90;;;;;;8329912;28;19913;-66
2021/08/27 19:25:19;;;;;;;;;;;14.70;99.90;;;;;;8331227;28;20347;-66
2021/08/27 19:29:20;;;;;;;;;;;14.70;99.90;;;;;;8330065;28;20381;-67
2021/08/27 19:33:20;;;;;;;;;;;14.40;99.90;;;;;;8331252;28;20276;-67
2021/08/27 19:37:21;;;;;;;;;;;14.40;99.90;;;;;;8330407;28;20454;-67
2021/08/27 19:41:21;;;;;;;;;;;14.40;99.90;;;;;;8329491;28;19913;-67
2021/08/27 19:45:22;;;;;;;;;;;14.20;99.90;;;;;;8329079;28;19992;-65
2021/08/27 19:49:22;;;;;;;;;;;14.00;99.90;;;;;;8330483;28;19932;-66
2021/08/27 19:53:23;;;;;;;;;;;14.20;99.90;;;;;;8330804;28;19909;-67
2021/08/27 19:57:25;;;;;;;;;;;14.40;99.90;;;;;;8330542;28;20369;-67
2021/08/27 20:01:25;;;;;;;;;;;14.30;99.90;;;;;;8330805;28;19917;-67
2021/08/27 20:05:26;;;;;;;;;;;14.30;99.90;;;;;;8328344;28;20011;-67
2021/08/27 20:09:26;;;;;;;;;;;14.20;99.90;;;;;;8330851;28;20372;-67
2021/08/27 20:13:27;;;;;;;;;;;14.30;99.90;;;;;;8325311;28;19916;-65
2021/08/27 20:17:27;;;;;;;;;;;14.40;99.90;;;;;;8328640;28;19910;-66
2021/08/27 20:21:28;;;;;;;;;;;14.20;99.90;;;;;;8329539;28;19909;-67
2021/08/27 20:25:28;;;;;;;;;;;14.20;99.90;;;;;;8329331;28;19918;-67
2021/08/27 20:29:29;;;;;;;;;;;14.30;99.90;;;;;;8329311;28;19940;-65
2021/08/27 20:33:29;;;;;;;;;;;14.30;99.90;;;;;;8329372;28;19982;-66
2021/08/27 20:37:30;;;;;;;;;;;14.00;99.90;;;;;;8318529;28;19914;-66
2021/08/27 20:41:30;;;;;;;;;;;14.00;99.90;;;;;;8310827;28;20301;-66
2021/08/27 20:45:31;;;;;;;;;;;14.10;99.90;;;;;;8311166;28;19913;-67
2021/08/27 20:49:31;;;;;;;;;;;13.90;99.90;;;;;;8325793;28;19952;-67
2021/08/27 20:53:32;;;;;;;;;;;13.90;99.90;;;;;;8328065;28;19963;-67
2021/08/27 20:57:34;;;;;;;;;;;14.00;99.90;;;;;;8327375;28;19992;-66
2021/08/27 21:01:35;;;;;;;;;;;13.90;99.90;;;;;;8328524;28;20297;-67
2021/08/27 21:05:35;;;;;;;;;;;13.90;99.90;;;;;;8327376;28;19979;-66
2021/08/27 21:09:36;;;;;;;;;;;13.80;99.90;;;;;;8326306;28;19970;-67
2021/08/27 21:13:36;;;;;;;;;;;13.60;99.90;;;;;;8327190;28;20393;-67
2021/08/27 21:17:37;;;;;;;;;;;13.40;99.90;;;;;;8325503;28;19935;-66
2021/08/27 21:21:37;;;;;;;;;;;13.30;99.90;;;;;;8326684;28;19932;-66
2021/08/27 21:25:38;;;;;;;;;;;13.30;99.90;;;;;;8326385;28;19917;-66
2021/08/27 21:29:39;;;;;;;;;;;13.30;99.90;;;;;;8345423;22;19925;-67
2021/08/27 21:33:40;;;;;;;;;;;13.30;99.90;;;;;;8326159;28;19909;-67
2021/08/27 21:37:41;;;;;;;;;;;13.30;99.90;;;;;;8323956;28;19909;-67
2021/08/27 21:41:41;;;;;;;;;;;13.40;99.90;;;;;;8324698;28;19933;-67
2021/08/27 21:45:42;;;;;;;;;;;13.30;99.90;;;;;;8325142;28;20410;-67
2021/08/27 21:49:42;;;;;;;;;;;13.50;99.90;;;;;;8308652;28;19909;-67
2021/08/27 21:53:42;;;;;;;;;;;13.60;99.90;;;;;;8326856;28;19989;-67
2021/08/27 21:57:43;;;;;;;;;;;13.50;99.90;;;;;;8326768;28;19957;-67
2021/08/27 22:01:43;;;;;;;;;;;13.50;99.90;;;;;;8326528;28;19913;-67
2021/08/27 22:05:44;;;;;;;;;;;13.40;99.90;;;;;;8326283;28;19920;-67
2021/08/27 22:09:44;;;;;;;;;;;13.30;99.90;;;;;;8325957;28;19913;-68
2021/08/27 22:13:45;;;;;;;;;;;13.30;99.90;;;;;;8325461;28;19917;-67
2021/08/27 22:17:45;;;;;;;;;;;13.20;99.90;;;;;;8324885;28;19913;-68
2021/08/27 22:21:46;;;;;;;;;;;13.20;99.90;;;;;;8325425;28;19913;-67
2021/08/27 22:25:46;;;;;;;;;;;13.30;99.90;;;;;;8325185;28;19913;-67
2021/08/27 22:29:48;;;;;;;;;;;13.20;99.90;;;;;;8324323;28;19936;-67
2021/08/27 22:33:49;;;;;;;;;;;13.30;99.90;;;;;;8324649;28;19921;-67
2021/08/27 22:37:50;;;;;;;;;;;13.30;99.90;;;;;;8324964;28;19913;-67
2021/08/27 22:41:50;;;;;;;;;;;13.30;99.90;;;;;;8324908;28;20377;-66
2021/08/27 22:45:51;;;;;;;;;;;13.40;99.90;;;;;;8324589;28;19917;-66
2021/08/27 22:49:51;;;;;;;;;;;13.20;99.90;;;;;;8324880;28;20297;-66
2021/08/27 22:53:52;;;;;;;;;;;13.10;99.90;;;;;;8325666;28;20343;-66
2021/08/27 22:57:52;;;;;;;;;;;13.00;99.90;;;;;;8325540;28;19909;-66
2021/08/27 23:01:53;;;;;;;;;;;12.90;99.90;;;;;;8325676;28;20367;-66
2021/08/27 23:05:53;;;;;;;;;;;12.90;99.90;;;;;;8325959;28;19915;-66
2021/08/27 23:09:54;;;;;;;;;;;13.00;99.90;;;;;;8325952;28;19913;-66
2021/08/27 23:13:54;;;;;;;;;;;13.10;99.90;;;;;;8325888;28;19915;-66
2021/08/27 23:17:55;;;;;;;;;;;13.20;99.90;;;;;;8307759;28;19910;-66
2021/08/27 23:22:00;;;;;;;;;;;13.10;99.90;;;;;;8307997;28;19909;-66
2021/08/27 23:26:00;;;;;;;;;;;13.00;99.90;;;;;;8307936;28;19924;-65
2021/08/27 23:30:00;;;;;;;;;;;13.20;99.90;;;;;;8307170;28;20381;-66